sensor_id;sensor_type;location;lat;lon;timestamp;temperature;humidity
72277;SHT30;61204;49.980;8.358;2022-10-17T00:01:57;12.55;99.99
72277;SHT30;61204;49.980;8.358;2022-10-17T00:04:23;12.55;99.99
72277;SHT30;61204;49.980;8.358;2022-10-17T00:06:48;12.48;99.99
72277;SHT30;61204;49.980;8.358;2022-10-17T00:09:14;12.46;99.99
72277;SHT30;61204;49.980;8.358;2022-10-17T00:11:39;12.59;99.99
72277;SHT30;61204;49.980;8.358;2022-10-17T00:14:05;12.60;99.99
72277;SHT30;61204;49.980;8.358;2022-10-17T00:16:35;12.62;99.99
72277;SHT30;61204;49.980;8.358;2022-10-17T00:19:04;12.58;99.99
72277;SHT30;61204;49.980;8.358;2022-10-17T00:21:31;12.46;99.99
72277;SHT30;61204;49.980;8.358;2022-10-17T00:23:59;12.44;99.99
72277;SHT30;61204;49.980;8.358;2022-10-17T00:26:25;12.49;99.99
72277;SHT30;61204;49.980;8.358;2022-10-17T00:28:53;12.41;99.99
72277;SHT30;61204;49.980;8.358;2022-10-17T00:31:21;12.31;99.99
72277;SHT30;61204;49.980;8.358;2022-10-17T00:33:49;12.27;99.99
72277;SHT30;61204;49.980;8.358;2022-10-17T00:36:24;12.20;99.99
72277;SHT30;61204;49.980;8.358;2022-10-17T00:38:55;12.16;99.99
72277;SHT30;61204;49.980;8.358;2022-10-17T00:41:27;12.17;99.99
72277;SHT30;61204;49.980;8.358;2022-10-17T00:47:02;12.11;99.99
72277;SHT30;61204;49.980;8.358;2022-10-17T00:49:33;12.05;99.99
72277;SHT30;61204;49.980;8.358;2022-10-17T00:52:07;12.01;99.99
72277;SHT30;61204;49.980;8.358;2022-10-17T00:54:40;11.97;99.99
72277;SHT30;61204;49.980;8.358;2022-10-17T00:57:10;11.91;99.99
72277;SHT30;61204;49.980;8.358;2022-10-17T00:59:39;11.90;99.99
72277;SHT30;61204;49.980;8.358;2022-10-17T01:02:18;11.93;99.99
72277;SHT30;61204;49.980;8.358;2022-10-17T01:04:48;11.93;99.99
72277;SHT30;61204;49.980;8.358;2022-10-17T01:07:16;11.89;99.99
72277;SHT30;61204;49.980;8.358;2022-10-17T01:09:44;11.87;99.99
72277;SHT30;61204;49.980;8.358;2022-10-17T01:12:32;11.86;99.99
72277;SHT30;61204;49.980;8.358;2022-10-17T01:18:45;11.84;99.99
72277;SHT30;61204;49.980;8.358;2022-10-17T01:21:29;11.84;99.99
72277;SHT30;61204;49.980;8.358;2022-10-17T01:27:19;11.98;99.99
72277;SHT30;61204;49.980;8.358;2022-10-17T01:30:25;11.93;99.99
72277;SHT30;61204;49.980;8.358;2022-10-17T01:36:15;12.18;99.99
72277;SHT30;61204;49.980;8.358;2022-10-17T01:38:56;12.14;99.99
72277;SHT30;61204;49.980;8.358;2022-10-17T01:44:21;12.10;99.99
72277;SHT30;61204;49.980;8.358;2022-10-17T01:47:10;12.01;99.99
72277;SHT30;61204;49.980;8.358;2022-10-17T01:49:42;12.00;99.99
72277;SHT30;61204;49.980;8.358;2022-10-17T01:52:20;12.00;99.99
72277;SHT30;61204;49.980;8.358;2022-10-17T01:54:56;11.93;99.99
72277;SHT30;61204;49.980;8.358;2022-10-17T01:57:35;11.83;99.99
72277;SHT30;61204;49.980;8.358;2022-10-17T02:00:11;11.79;99.99
72277;SHT30;61204;49.980;8.358;2022-10-17T02:02:44;11.67;99.99
72277;SHT30;61204;49.980;8.358;2022-10-17T02:05:13;11.58;99.99
72277;SHT30;61204;49.980;8.358;2022-10-17T02:07:41;11.54;99.99
72277;SHT30;61204;49.980;8.358;2022-10-17T02:10:20;11.49;99.99
72277;SHT30;61204;49.980;8.358;2022-10-17T02:25:46;11.34;99.99
72277;SHT30;61204;49.980;8.358;2022-10-17T02:31:16;11.35;99.99
72277;SHT30;61204;49.980;8.358;2022-10-17T02:33:57;11.35;99.99
72277;SHT30;61204;49.980;8.358;2022-10-17T02:36:33;11.39;99.99
72277;SHT30;61204;49.980;8.358;2022-10-17T02:39:04;11.42;99.99
72277;SHT30;61204;49.980;8.358;2022-10-17T02:41:33;11.41;99.99
72277;SHT30;61204;49.980;8.358;2022-10-17T02:44:04;11.45;99.99
72277;SHT30;61204;49.980;8.358;2022-10-17T02:46:33;11.54;99.99
72277;SHT30;61204;49.980;8.358;2022-10-17T02:49:30;11.61;99.99
72277;SHT30;61204;49.980;8.358;2022-10-17T02:52:13;11.55;99.99
72277;SHT30;61204;49.980;8.358;2022-10-17T02:55:16;11.61;99.99
72277;SHT30;61204;49.980;8.358;2022-10-17T02:57:53;11.59;99.99
72277;SHT30;61204;49.980;8.358;2022-10-17T03:00:24;11.83;99.99
72277;SHT30;61204;49.980;8.358;2022-10-17T03:02:53;11.86;99.99
72277;SHT30;61204;49.980;8.358;2022-10-17T03:05:23;11.89;99.99
72277;SHT30;61204;49.980;8.358;2022-10-17T03:07:51;11.84;99.99
72277;SHT30;61204;49.980;8.358;2022-10-17T03:10:18;11.83;99.99
72277;SHT30;61204;49.980;8.358;2022-10-17T03:12:44;11.77;99.99
72277;SHT30;61204;49.980;8.358;2022-10-17T03:15:11;11.63;99.99
72277;SHT30;61204;49.980;8.358;2022-10-17T03:17:37;11.54;99.99
72277;SHT30;61204;49.980;8.358;2022-10-17T03:20:04;11.46;99.99
72277;SHT30;61204;49.980;8.358;2022-10-17T03:22:31;11.36;99.99
72277;SHT30;61204;49.980;8.358;2022-10-17T03:24:57;11.30;99.99
72277;SHT30;61204;49.980;8.358;2022-10-17T03:27:23;11.27;99.99
72277;SHT30;61204;49.980;8.358;2022-10-17T03:29:49;11.20;99.99
72277;SHT30;61204;49.980;8.358;2022-10-17T03:32:15;11.20;99.99
72277;SHT30;61204;49.980;8.358;2022-10-17T03:34:40;11.25;99.99
72277;SHT30;61204;49.980;8.358;2022-10-17T03:37:06;11.41;99.99
72277;SHT30;61204;49.980;8.358;2022-10-17T03:39:32;11.58;99.99
72277;SHT30;61204;49.980;8.358;2022-10-17T03:41:57;11.61;99.99
72277;SHT30;61204;49.980;8.358;2022-10-17T03:44:23;11.54;99.99
72277;SHT30;61204;49.980;8.358;2022-10-17T03:46:48;11.49;99.99
72277;SHT30;61204;49.980;8.358;2022-10-17T03:49:14;11.41;99.99
72277;SHT30;61204;49.980;8.358;2022-10-17T03:51:40;11.36;99.99
72277;SHT30;61204;49.980;8.358;2022-10-17T03:54:05;11.34;99.99
72277;SHT30;61204;49.980;8.358;2022-10-17T03:56:31;11.51;99.99
72277;SHT30;61204;49.980;8.358;2022-10-17T03:58:57;11.59;99.99
72277;SHT30;61204;49.980;8.358;2022-10-17T04:01:23;11.70;99.99
72277;SHT30;61204;49.980;8.358;2022-10-17T04:03:51;11.80;99.99
72277;SHT30;61204;49.980;8.358;2022-10-17T04:06:20;11.91;99.99
72277;SHT30;61204;49.980;8.358;2022-10-17T04:08:46;11.93;99.99
72277;SHT30;61204;49.980;8.358;2022-10-17T04:11:16;11.95;99.99
72277;SHT30;61204;49.980;8.358;2022-10-17T04:13:44;12.13;99.99
72277;SHT30;61204;49.980;8.358;2022-10-17T04:16:15;12.13;99.99
72277;SHT30;61204;49.980;8.358;2022-10-17T04:18:42;12.08;99.99
72277;SHT30;61204;49.980;8.358;2022-10-17T04:21:10;12.10;99.99
72277;SHT30;61204;49.980;8.358;2022-10-17T04:23:37;12.03;99.99
72277;SHT30;61204;49.980;8.358;2022-10-17T04:26:04;12.01;99.99
72277;SHT30;61204;49.980;8.358;2022-10-17T04:28:31;11.93;99.99
72277;SHT30;61204;49.980;8.358;2022-10-17T04:31:03;11.87;99.99
72277;SHT30;61204;49.980;8.358;2022-10-17T04:33:31;11.93;99.99
72277;SHT30;61204;49.980;8.358;2022-10-17T04:36:09;11.90;99.99
72277;SHT30;61204;49.980;8.358;2022-10-17T04:38:37;11.97;99.99
72277;SHT30;61204;49.980;8.358;2022-10-17T04:41:07;11.87;99.99
72277;SHT30;61204;49.980;8.358;2022-10-17T04:43:37;11.82;99.99
72277;SHT30;61204;49.980;8.358;2022-10-17T04:46:10;11.76;99.99
72277;SHT30;61204;49.980;8.358;2022-10-17T04:48:39;11.79;99.99
72277;SHT30;61204;49.980;8.358;2022-10-17T04:51:10;11.90;99.99
72277;SHT30;61204;49.980;8.358;2022-10-17T04:53:41;11.90;99.99
72277;SHT30;61204;49.980;8.358;2022-10-17T04:56:19;11.84;99.99
72277;SHT30;61204;49.980;8.358;2022-10-17T04:58:47;11.63;99.99
72277;SHT30;61204;49.980;8.358;2022-10-17T05:01:17;11.52;99.99
72277;SHT30;61204;49.980;8.358;2022-10-17T05:03:45;11.48;99.99
72277;SHT30;61204;49.980;8.358;2022-10-17T05:06:23;11.45;99.99
72277;SHT30;61204;49.980;8.358;2022-10-17T05:08:50;11.48;99.99
72277;SHT30;61204;49.980;8.358;2022-10-17T05:11:23;11.42;99.99
72277;SHT30;61204;49.980;8.358;2022-10-17T05:13:56;11.35;99.99
72277;SHT30;61204;49.980;8.358;2022-10-17T05:16:25;11.32;99.99
72277;SHT30;61204;49.980;8.358;2022-10-17T05:18:54;11.24;99.99
72277;SHT30;61204;49.980;8.358;2022-10-17T05:21:24;11.22;99.99
72277;SHT30;61204;49.980;8.358;2022-10-17T05:23:51;11.30;99.99
72277;SHT30;61204;49.980;8.358;2022-10-17T05:26:18;11.36;99.99
72277;SHT30;61204;49.980;8.358;2022-10-17T05:28:44;11.43;99.99
72277;SHT30;61204;49.980;8.358;2022-10-17T05:31:11;11.48;99.99
72277;SHT30;61204;49.980;8.358;2022-10-17T05:33:38;11.73;99.99
72277;SHT30;61204;49.980;8.358;2022-10-17T05:36:05;11.75;99.99
72277;SHT30;61204;49.980;8.358;2022-10-17T05:38:32;11.90;99.99
72277;SHT30;61204;49.980;8.358;2022-10-17T05:40:59;11.94;99.99
72277;SHT30;61204;49.980;8.358;2022-10-17T05:43:27;11.82;99.99
72277;SHT30;61204;49.980;8.358;2022-10-17T05:45:54;11.75;99.99
72277;SHT30;61204;49.980;8.358;2022-10-17T05:48:21;11.83;99.99
72277;SHT30;61204;49.980;8.358;2022-10-17T05:50:48;11.72;99.99
72277;SHT30;61204;49.980;8.358;2022-10-17T05:53:15;11.56;99.99
72277;SHT30;61204;49.980;8.358;2022-10-17T05:55:40;11.46;99.99
72277;SHT30;61204;49.980;8.358;2022-10-17T05:58:06;11.45;99.99
72277;SHT30;61204;49.980;8.358;2022-10-17T06:00:32;11.56;99.99
72277;SHT30;61204;49.980;8.358;2022-10-17T06:02:57;11.67;99.99
72277;SHT30;61204;49.980;8.358;2022-10-17T06:05:23;11.70;99.99
72277;SHT30;61204;49.980;8.358;2022-10-17T06:07:48;11.76;99.99
72277;SHT30;61204;49.980;8.358;2022-10-17T06:10:17;11.83;99.99
72277;SHT30;61204;49.980;8.358;2022-10-17T06:12:44;11.93;99.99
72277;SHT30;61204;49.980;8.358;2022-10-17T06:15:11;11.94;99.99
72277;SHT30;61204;49.980;8.358;2022-10-17T06:17:37;11.97;99.99
72277;SHT30;61204;49.980;8.358;2022-10-17T06:20:03;11.97;99.99
72277;SHT30;61204;49.980;8.358;2022-10-17T06:22:29;11.97;99.99
72277;SHT30;61204;49.980;8.358;2022-10-17T06:24:55;12.05;99.99
72277;SHT30;61204;49.980;8.358;2022-10-17T06:27:20;12.31;99.99
72277;SHT30;61204;49.980;8.358;2022-10-17T06:29:46;12.60;99.99
72277;SHT30;61204;49.980;8.358;2022-10-17T06:32:13;12.83;99.99
72277;SHT30;61204;49.980;8.358;2022-10-17T06:34:39;12.99;99.99
72277;SHT30;61204;49.980;8.358;2022-10-17T06:37:05;13.21;99.99
72277;SHT30;61204;49.980;8.358;2022-10-17T06:39:31;13.45;99.99
72277;SHT30;61204;49.980;8.358;2022-10-17T06:42:00;13.80;99.99
72277;SHT30;61204;49.980;8.358;2022-10-17T06:44:26;13.93;99.77
72277;SHT30;61204;49.980;8.358;2022-10-17T06:47:00;14.14;98.95
72277;SHT30;61204;49.980;8.358;2022-10-17T06:49:27;14.61;99.23
72277;SHT30;61204;49.980;8.358;2022-10-17T06:51:53;14.80;98.46
72277;SHT30;61204;49.980;8.358;2022-10-17T06:54:19;14.89;97.69
72277;SHT30;61204;49.980;8.358;2022-10-17T06:56:45;15.12;96.79
72277;SHT30;61204;49.980;8.358;2022-10-17T06:59:11;15.42;96.33
72277;SHT30;61204;49.980;8.358;2022-10-17T07:01:37;15.89;95.41
72277;SHT30;61204;49.980;8.358;2022-10-17T07:04:03;16.16;93.42
72277;SHT30;61204;49.980;8.358;2022-10-17T07:06:30;16.49;91.12
72277;SHT30;61204;49.980;8.358;2022-10-17T07:08:57;16.76;90.34
72277;SHT30;61204;49.980;8.358;2022-10-17T07:11:23;16.97;88.18
72277;SHT30;61204;49.980;8.358;2022-10-17T07:13:50;17.00;86.68
72277;SHT30;61204;49.980;8.358;2022-10-17T07:16:16;17.17;86.62
72277;SHT30;61204;49.980;8.358;2022-10-17T07:18:42;17.48;87.21
72277;SHT30;61204;49.980;8.358;2022-10-17T07:21:09;17.45;87.29
72277;SHT30;61204;49.980;8.358;2022-10-17T07:23:36;17.63;88.07
72277;SHT30;61204;49.980;8.358;2022-10-17T07:26:10;17.80;83.73
72277;SHT30;61204;49.980;8.358;2022-10-17T07:28:40;18.31;85.91
72277;SHT30;61204;49.980;8.358;2022-10-17T07:38:55;19.24;77.85
72277;SHT30;61204;49.980;8.358;2022-10-17T07:41:20;19.89;79.29
72277;SHT30;61204;49.980;8.358;2022-10-17T07:43:47;19.86;77.00
72277;SHT30;61204;49.980;8.358;2022-10-17T07:46:13;19.73;75.43
72277;SHT30;61204;49.980;8.358;2022-10-17T07:48:39;20.25;75.60
72277;SHT30;61204;49.980;8.358;2022-10-17T07:51:07;20.62;73.55
72277;SHT30;61204;49.980;8.358;2022-10-17T07:53:38;20.55;73.66
72277;SHT30;61204;49.980;8.358;2022-10-17T07:56:09;20.61;73.56
72277;SHT30;61204;49.980;8.358;2022-10-17T07:58:36;20.44;73.36
72277;SHT30;61204;49.980;8.358;2022-10-17T08:01:08;20.56;73.39
72277;SHT30;61204;49.980;8.358;2022-10-17T08:03:40;20.56;73.35
72277;SHT30;61204;49.980;8.358;2022-10-17T08:06:07;20.95;72.69
72277;SHT30;61204;49.980;8.358;2022-10-17T08:08:33;20.89;71.77
72277;SHT30;61204;49.980;8.358;2022-10-17T08:11:06;20.62;72.17
72277;SHT30;61204;49.980;8.358;2022-10-17T08:13:35;20.35;72.79
72277;SHT30;61204;49.980;8.358;2022-10-17T08:16:05;20.48;72.76
72277;SHT30;61204;49.980;8.358;2022-10-17T08:18:35;20.67;71.61
72277;SHT30;61204;49.980;8.358;2022-10-17T08:21:04;20.78;71.55
72277;SHT30;61204;49.980;8.358;2022-10-17T08:23:32;20.85;70.75
72277;SHT30;61204;49.980;8.358;2022-10-17T08:26:00;20.41;72.09
72277;SHT30;61204;49.980;8.358;2022-10-17T08:28:28;20.04;72.74
72277;SHT30;61204;49.980;8.358;2022-10-17T08:31:03;20.14;74.29
72277;SHT30;61204;49.980;8.358;2022-10-17T08:33:33;20.34;72.95
72277;SHT30;61204;49.980;8.358;2022-10-17T08:36:00;20.56;71.75
72277;SHT30;61204;49.980;8.358;2022-10-17T08:38:31;20.52;70.94
72277;SHT30;61204;49.980;8.358;2022-10-17T08:41:03;20.55;72.85
72277;SHT30;61204;49.980;8.358;2022-10-17T08:46:57;21.19;69.67
72277;SHT30;61204;49.980;8.358;2022-10-17T08:49:44;21.54;70.41
72277;SHT30;61204;49.980;8.358;2022-10-17T08:52:42;21.72;68.19
72277;SHT30;61204;49.980;8.358;2022-10-17T08:55:28;21.35;69.09
72277;SHT30;61204;49.980;8.358;2022-10-17T08:58:25;21.13;69.88
72277;SHT30;61204;49.980;8.358;2022-10-17T09:10:49;22.44;67.98
72277;SHT30;61204;49.980;8.358;2022-10-17T09:13:30;23.33;65.23
72277;SHT30;61204;49.980;8.358;2022-10-17T09:19:38;23.57;63.66
72277;SHT30;61204;49.980;8.358;2022-10-17T09:22:19;23.41;64.01
72277;SHT30;61204;49.980;8.358;2022-10-17T09:24:51;23.76;62.54
72277;SHT30;61204;49.980;8.358;2022-10-17T09:27:35;23.65;62.94
72277;SHT30;61204;49.980;8.358;2022-10-17T09:30:30;24.02;63.00
72277;SHT30;61204;49.980;8.358;2022-10-17T09:33:11;23.90;64.48
72277;SHT30;61204;49.980;8.358;2022-10-17T09:35:42;24.46;62.34
72277;SHT30;61204;49.980;8.358;2022-10-17T09:38:19;24.57;60.10
72277;SHT30;61204;49.980;8.358;2022-10-17T09:41:00;24.41;61.70
72277;SHT30;61204;49.980;8.358;2022-10-17T09:43:26;24.34;61.69
72277;SHT30;61204;49.980;8.358;2022-10-17T09:46:06;24.41;60.04
72277;SHT30;61204;49.980;8.358;2022-10-17T09:48:43;24.40;60.82
72277;SHT30;61204;49.980;8.358;2022-10-17T09:51:13;23.98;62.16
72277;SHT30;61204;49.980;8.358;2022-10-17T09:53:48;24.21;61.65
72277;SHT30;61204;49.980;8.358;2022-10-17T09:56:18;24.54;59.71
72277;SHT30;61204;49.980;8.358;2022-10-17T09:58:51;25.05;58.64
72277;SHT30;61204;49.980;8.358;2022-10-17T10:01:29;25.02;59.27
72277;SHT30;61204;49.980;8.358;2022-10-17T10:04:16;25.51;57.90
72277;SHT30;61204;49.980;8.358;2022-10-17T10:07:04;25.74;57.71
72277;SHT30;61204;49.980;8.358;2022-10-17T10:09:36;26.03;57.33
72277;SHT30;61204;49.980;8.358;2022-10-17T10:12:17;25.43;56.97
72277;SHT30;61204;49.980;8.358;2022-10-17T10:14:44;25.81;58.17
72277;SHT30;61204;49.980;8.358;2022-10-17T10:17:43;27.08;55.18
72277;SHT30;61204;49.980;8.358;2022-10-17T10:20:38;26.92;55.01
72277;SHT30;61204;49.980;8.358;2022-10-17T10:23:12;27.22;52.99
72277;SHT30;61204;49.980;8.358;2022-10-17T10:29:29;27.05;54.81
72277;SHT30;61204;49.980;8.358;2022-10-17T10:32:29;27.43;52.89
72277;SHT30;61204;49.980;8.358;2022-10-17T10:35:00;27.29;53.65
72277;SHT30;61204;49.980;8.358;2022-10-17T10:37:40;27.72;52.93
72277;SHT30;61204;49.980;8.358;2022-10-17T10:40:19;28.13;51.88
72277;SHT30;61204;49.980;8.358;2022-10-17T10:42:54;28.46;51.90
72277;SHT30;61204;49.980;8.358;2022-10-17T10:45:39;28.33;51.01
72277;SHT30;61204;49.980;8.358;2022-10-17T10:48:36;29.12;49.42
72277;SHT30;61204;49.980;8.358;2022-10-17T10:51:13;29.73;48.81
72277;SHT30;61204;49.980;8.358;2022-10-17T10:54:12;29.36;49.50
72277;SHT30;61204;49.980;8.358;2022-10-17T10:56:51;29.88;46.74
72277;SHT30;61204;49.980;8.358;2022-10-17T11:02:48;29.49;47.42
72277;SHT30;61204;49.980;8.358;2022-10-17T11:08:12;30.19;47.70
72277;SHT30;61204;49.980;8.358;2022-10-17T11:11:08;30.29;47.18
72277;SHT30;61204;49.980;8.358;2022-10-17T11:14:07;30.15;46.20
72277;SHT30;61204;49.980;8.358;2022-10-17T11:17:07;30.36;47.61
72277;SHT30;61204;49.980;8.358;2022-10-17T11:19:51;30.05;46.80
72277;SHT30;61204;49.980;8.358;2022-10-17T11:27:53;30.57;47.34
72277;SHT30;61204;49.980;8.358;2022-10-17T11:30:22;30.49;45.23
72277;SHT30;61204;49.980;8.358;2022-10-17T11:33:02;30.21;47.77
72277;SHT30;61204;49.980;8.358;2022-10-17T11:35:36;29.98;47.84
72277;SHT30;61204;49.980;8.358;2022-10-17T11:38:26;29.95;48.22
72277;SHT30;61204;49.980;8.358;2022-10-17T11:41:13;30.02;47.96
72277;SHT30;61204;49.980;8.358;2022-10-17T11:44:01;30.35;47.14
72277;SHT30;61204;49.980;8.358;2022-10-17T11:46:40;30.57;47.13
72277;SHT30;61204;49.980;8.358;2022-10-17T11:49:15;30.88;46.50
72277;SHT30;61204;49.980;8.358;2022-10-17T11:54:56;31.15;45.55
72277;SHT30;61204;49.980;8.358;2022-10-17T12:00:42;30.05;48.97
72277;SHT30;61204;49.980;8.358;2022-10-17T12:06:46;30.57;48.10
72277;SHT30;61204;49.980;8.358;2022-10-17T12:09:45;31.16;47.46
72277;SHT30;61204;49.980;8.358;2022-10-17T12:12:42;31.57;45.41
72277;SHT30;61204;49.980;8.358;2022-10-17T12:17:40;30.98;46.76
72277;SHT30;61204;49.980;8.358;2022-10-17T12:26:07;31.59;45.15
72277;SHT30;61204;49.980;8.358;2022-10-17T12:31:20;31.51;45.84
72277;SHT30;61204;49.980;8.358;2022-10-17T12:33:59;31.81;40.84
72277;SHT30;61204;49.980;8.358;2022-10-17T12:55:10;29.92;44.97
72277;SHT30;61204;49.980;8.358;2022-10-17T12:57:42;29.77;45.44
72277;SHT30;61204;49.980;8.358;2022-10-17T13:00:26;29.88;44.65
72277;SHT30;61204;49.980;8.358;2022-10-17T13:02:55;30.22;43.93
72277;SHT30;61204;49.980;8.358;2022-10-17T13:05:35;30.67;44.29
72277;SHT30;61204;49.980;8.358;2022-10-17T13:08:06;30.41;44.07
72277;SHT30;61204;49.980;8.358;2022-10-17T13:10:38;30.04;45.58
72277;SHT30;61204;49.980;8.358;2022-10-17T13:13:20;30.59;44.28
72277;SHT30;61204;49.980;8.358;2022-10-17T13:16:02;30.67;44.05
72277;SHT30;61204;49.980;8.358;2022-10-17T13:18:29;31.02;42.82
72277;SHT30;61204;49.980;8.358;2022-10-17T13:21:03;31.32;42.33
72277;SHT30;61204;49.980;8.358;2022-10-17T13:23:34;31.40;43.18
72277;SHT30;61204;49.980;8.358;2022-10-17T13:26:24;31.76;41.89
72277;SHT30;61204;49.980;8.358;2022-10-17T13:29:10;31.39;42.61
72277;SHT30;61204;49.980;8.358;2022-10-17T13:31:40;31.54;42.33
72277;SHT30;61204;49.980;8.358;2022-10-17T13:34:23;31.50;42.30
72277;SHT30;61204;49.980;8.358;2022-10-17T13:37:01;30.98;43.37
72277;SHT30;61204;49.980;8.358;2022-10-17T13:39:43;31.29;44.40
72277;SHT30;61204;49.980;8.358;2022-10-17T13:42:22;31.74;42.21
72277;SHT30;61204;49.980;8.358;2022-10-17T13:44:52;31.62;42.56
72277;SHT30;61204;49.980;8.358;2022-10-17T13:47:28;31.98;41.74
72277;SHT30;61204;49.980;8.358;2022-10-17T13:49:57;31.60;42.54
72277;SHT30;61204;49.980;8.358;2022-10-17T13:52:27;31.14;42.61
72277;SHT30;61204;49.980;8.358;2022-10-17T13:55:06;31.30;43.27
72277;SHT30;61204;49.980;8.358;2022-10-17T13:57:34;31.63;43.12
72277;SHT30;61204;49.980;8.358;2022-10-17T14:00:06;31.32;43.06
72277;SHT30;61204;49.980;8.358;2022-10-17T14:02:40;30.70;44.17
72277;SHT30;61204;49.980;8.358;2022-10-17T14:05:18;30.73;44.75
72277;SHT30;61204;49.980;8.358;2022-10-17T14:07:51;30.18;45.55
72277;SHT30;61204;49.980;8.358;2022-10-17T14:10:23;30.55;44.90
72277;SHT30;61204;49.980;8.358;2022-10-17T14:12:53;29.76;45.77
72277;SHT30;61204;49.980;8.358;2022-10-17T14:15:26;29.15;47.25
72277;SHT30;61204;49.980;8.358;2022-10-17T14:18:01;28.96;48.29
72277;SHT30;61204;49.980;8.358;2022-10-17T14:20:30;28.94;48.37
72277;SHT30;61204;49.980;8.358;2022-10-17T14:22:58;29.13;48.24
72277;SHT30;61204;49.980;8.358;2022-10-17T14:25:39;29.32;46.93
72277;SHT30;61204;49.980;8.358;2022-10-17T14:28:14;28.99;47.28
72277;SHT30;61204;49.980;8.358;2022-10-17T14:30:45;28.84;47.91
72277;SHT30;61204;49.980;8.358;2022-10-17T14:35:52;29.18;48.06
72277;SHT30;61204;49.980;8.358;2022-10-17T14:38:21;28.40;49.13
72277;SHT30;61204;49.980;8.358;2022-10-17T14:41:00;27.98;50.74
72277;SHT30;61204;49.980;8.358;2022-10-17T14:43:35;27.72;51.78
72277;SHT30;61204;49.980;8.358;2022-10-17T14:46:02;27.55;52.11
72277;SHT30;61204;49.980;8.358;2022-10-17T14:48:32;27.33;52.52
72277;SHT30;61204;49.980;8.358;2022-10-17T14:51:14;26.82;53.30
72277;SHT30;61204;49.980;8.358;2022-10-17T14:53:58;26.29;54.86
72277;SHT30;61204;49.980;8.358;2022-10-17T14:56:50;26.08;55.46
72277;SHT30;61204;49.980;8.358;2022-10-17T14:59:17;25.88;56.09
72277;SHT30;61204;49.980;8.358;2022-10-17T15:01:50;25.65;56.91
72277;SHT30;61204;49.980;8.358;2022-10-17T15:04:16;25.43;57.49
72277;SHT30;61204;49.980;8.358;2022-10-17T15:06:43;25.30;57.94
72277;SHT30;61204;49.980;8.358;2022-10-17T15:09:10;25.22;58.28
72277;SHT30;61204;49.980;8.358;2022-10-17T15:11:37;25.17;58.90
72277;SHT30;61204;49.980;8.358;2022-10-17T15:14:03;25.13;59.14
72277;SHT30;61204;49.980;8.358;2022-10-17T15:16:33;25.24;58.65
72277;SHT30;61204;49.980;8.358;2022-10-17T15:18:59;25.47;58.73
72277;SHT30;61204;49.980;8.358;2022-10-17T15:21:28;25.78;57.86
72277;SHT30;61204;49.980;8.358;2022-10-17T15:23:53;26.00;57.57
72277;SHT30;61204;49.980;8.358;2022-10-17T15:26:23;26.16;56.91
72277;SHT30;61204;49.980;8.358;2022-10-17T15:28:52;26.17;56.85
72277;SHT30;61204;49.980;8.358;2022-10-17T15:31:21;26.26;56.98
72277;SHT30;61204;49.980;8.358;2022-10-17T15:33:49;26.13;58.10
72277;SHT30;61204;49.980;8.358;2022-10-17T15:36:54;26.00;58.99
72277;SHT30;61204;49.980;8.358;2022-10-17T15:39:19;25.81;59.68
72277;SHT30;61204;49.980;8.358;2022-10-17T15:41:45;25.74;60.82
72277;SHT30;61204;49.980;8.358;2022-10-17T15:44:12;25.77;59.65
72277;SHT30;61204;49.980;8.358;2022-10-17T15:46:40;25.43;60.89
72277;SHT30;61204;49.980;8.358;2022-10-17T15:49:12;25.19;61.36
72277;SHT30;61204;49.980;8.358;2022-10-17T15:51:39;25.09;61.71
72277;SHT30;61204;49.980;8.358;2022-10-17T15:54:05;24.93;62.25
72277;SHT30;61204;49.980;8.358;2022-10-17T15:56:38;24.82;62.27
72277;SHT30;61204;49.980;8.358;2022-10-17T15:59:20;24.61;62.25
72277;SHT30;61204;49.980;8.358;2022-10-17T16:01:50;24.54;62.58
72277;SHT30;61204;49.980;8.358;2022-10-17T16:04:15;24.33;63.39
72277;SHT30;61204;49.980;8.358;2022-10-17T16:06:42;24.06;63.91
72277;SHT30;61204;49.980;8.358;2022-10-17T16:09:08;23.95;64.47
72277;SHT30;61204;49.980;8.358;2022-10-17T16:11:38;23.72;65.55
72277;SHT30;61204;49.980;8.358;2022-10-17T16:14:11;23.53;66.51
72277;SHT30;61204;49.980;8.358;2022-10-17T16:16:39;23.33;67.46
72277;SHT30;61204;49.980;8.358;2022-10-17T16:19:05;23.13;67.95
72277;SHT30;61204;49.980;8.358;2022-10-17T16:21:34;23.03;68.53
72277;SHT30;61204;49.980;8.358;2022-10-17T16:24:03;22.89;69.11
72277;SHT30;61204;49.980;8.358;2022-10-17T16:26:29;22.78;69.11
72277;SHT30;61204;49.980;8.358;2022-10-17T16:28:56;22.64;69.57
72277;SHT30;61204;49.980;8.358;2022-10-17T16:31:27;22.48;70.36
72277;SHT30;61204;49.980;8.358;2022-10-17T16:33:57;22.18;71.99
72277;SHT30;61204;49.980;8.358;2022-10-17T16:36:25;21.89;72.43
72277;SHT30;61204;49.980;8.358;2022-10-17T16:38:51;21.68;72.39
72277;SHT30;61204;49.980;8.358;2022-10-17T16:41:26;21.52;73.11
72277;SHT30;61204;49.980;8.358;2022-10-17T16:43:54;21.41;73.62
72277;SHT30;61204;49.980;8.358;2022-10-17T16:46:24;21.32;73.81
72277;SHT30;61204;49.980;8.358;2022-10-17T16:48:51;21.34;74.11
72277;SHT30;61204;49.980;8.358;2022-10-17T16:51:19;21.20;74.44
72277;SHT30;61204;49.980;8.358;2022-10-17T16:53:47;21.14;74.78
72277;SHT30;61204;49.980;8.358;2022-10-17T16:56:22;21.04;75.21
72277;SHT30;61204;49.980;8.358;2022-10-17T16:58:49;20.95;75.67
72277;SHT30;61204;49.980;8.358;2022-10-17T17:01:22;20.89;76.05
72277;SHT30;61204;49.980;8.358;2022-10-17T17:03:50;20.90;75.84
72277;SHT30;61204;49.980;8.358;2022-10-17T17:06:23;20.89;75.69
72277;SHT30;61204;49.980;8.358;2022-10-17T17:08:51;20.89;75.84
72277;SHT30;61204;49.980;8.358;2022-10-17T17:11:20;20.90;75.79
72277;SHT30;61204;49.980;8.358;2022-10-17T17:13:48;20.92;75.57
72277;SHT30;61204;49.980;8.358;2022-10-17T17:16:20;20.90;75.87
72277;SHT30;61204;49.980;8.358;2022-10-17T17:18:48;20.83;75.80
72277;SHT30;61204;49.980;8.358;2022-10-17T17:21:18;20.76;76.06
72277;SHT30;61204;49.980;8.358;2022-10-17T17:23:43;20.73;75.87
72277;SHT30;61204;49.980;8.358;2022-10-17T17:26:15;20.69;76.22
72277;SHT30;61204;49.980;8.358;2022-10-17T17:28:43;20.58;76.65
72277;SHT30;61204;49.980;8.358;2022-10-17T17:31:13;20.44;77.31
72277;SHT30;61204;49.980;8.358;2022-10-17T17:33:44;20.33;77.91
72277;SHT30;61204;49.980;8.358;2022-10-17T17:36:21;20.30;77.99
72277;SHT30;61204;49.980;8.358;2022-10-17T17:38:50;20.27;77.86
72277;SHT30;61204;49.980;8.358;2022-10-17T17:41:19;20.27;78.34
72277;SHT30;61204;49.980;8.358;2022-10-17T17:43:47;20.16;78.23
72277;SHT30;61204;49.980;8.358;2022-10-17T17:46:18;20.13;78.57
72277;SHT30;61204;49.980;8.358;2022-10-17T17:48:47;20.03;79.00
72277;SHT30;61204;49.980;8.358;2022-10-17T17:51:17;20.00;79.06
72277;SHT30;61204;49.980;8.358;2022-10-17T17:53:44;19.98;79.01
72277;SHT30;61204;49.980;8.358;2022-10-17T17:56:15;20.03;79.11